This is the latest recevied weather packets stored in our database for station/object W4OA. If no packets are shown the sender has not sent any weather packets the latest 10 day(s).
| Time | Temp. | Humidity | Pressure | Rain* | Wind** | Luminosity | Snow |
|---|---|---|---|---|---|---|---|
| 1777775098 | 11.11° C | 77% | 1010 hPa | 0 mm | - | 0 W/m² | - |
| 1777773599 | 12.22° C | 72% | 1010 hPa | 0 mm | - | 0 W/m² | - |
| 1777766098 | 17.78° C | 40% | 1008 hPa | 0 mm | - | 0 W/m² | - |
| 1777761298 | 19.44° C | 37% | 1007 hPa | 0 mm | - | 0 W/m² | - |
| 1777760998 | 19.44° C | 36% | 1007 hPa | 0 mm | - | 0 W/m² | - |
| 1777760698 | 20° C | 37% | 1007 hPa | 0 mm | - | 0 W/m² | - |
| 1777760398 | 20° C | 37% | 1007 hPa | 0 mm | - | 0 W/m² | - |
| 1777760098 | 20.56° C | 35% | 1007 hPa | 0 mm | - | 0 W/m² | - |
| 1777759799 | 20.56° C | 37% | 1007 hPa | 0 mm | - | 0 W/m² | - |
| 1777758598 | 20.56° C | 36% | 1007 hPa | 0 mm | - | 0 W/m² | - |
| 1777757998 | 21.11° C | 35% | 1007 hPa | 0 mm | - | 0 W/m² | - |
| 1777757698 | 21.11° C | 35% | 1007 hPa | 0 mm | - | 0 W/m² | - |
| 1777757398 | 21.11° C | 36% | 1007 hPa | 0 mm | - | 0 W/m² | - |
| 1777757098 | 21.11° C | 36% | 1007 hPa | 0 mm | - | 0 W/m² | - |
| 1777756799 | 21.67° C | 36% | 1007 hPa | 0 mm | - | 0 W/m² | - |
| 1777756498 | 21.11° C | 36% | 1007 hPa | 0 mm | - | 0 W/m² | - |
| 1777756198 | 21.11° C | 33% | 1007 hPa | 0 mm | - | 0 W/m² | - |
| 1777755898 | 21.11° C | 33% | 1007 hPa | 0 mm | - | 0 W/m² | - |
| 1777755598 | 21.11° C | 33% | 1007 hPa | 0 mm | - | 0 W/m² | - |
| 1777754098 | 22.22° C | 38% | 1006 hPa | 0 mm | - | 0 W/m² | - |
| 1777753798 | 22.22° C | 36% | 1006 hPa | 0 mm | - | 0 W/m² | - |
| 1777753498 | 22.22° C | 36% | 1007 hPa | 0 mm | - | 0 W/m² | - |
| 1777753198 | 21.67° C | 38% | 1007 hPa | 0 mm | - | 0 W/m² | - |
| 1777752898 | 21.67° C | 35% | 1006 hPa | 0 mm | - | 0 W/m² | - |
| 1777751998 | 21.67° C | 39% | 1006 hPa | 0 mm | - | 0 W/m² | - |
* Rain latest hour (hover to see other rain measurements)
** Current wind speed in m/s (hover to see current wind gust speed)